x

South Nomad (46036) Wave Buoy

10:00pm - Fri 28th Aug 2015 All times are UTC.

  • Sig Wave height 6.2ft
  • Peak Period 15s
  • Wind
    22mph, 27mph gusts
  • Sea Temp 65°f
  • Air Temp 63°f
  • Sea Pressure 1003mb

More Historic Weather Station data

Upgrade to MSW Pro to gain access to the past 30 days of data for over 8000 Wavebouys and Weather Stations around the globe.

Join Pro

Comparision Forecast

View Surf forecast
   
Fri 08/28 10:00pm 6ft 15s 22 27 mph 1003mb 65f 63f
9:00pm 6.5ft 15s 22 27 mph 1003.6mb 65f 63f
8:00pm 5.5ft 16s 22 27 mph 1004.3mb 65f 63f
7:00pm 5ft 16s 20 22 mph 1004.7mb 65f 64f
6:00pm 5ft 16s 20 25 mph 1005.1mb 65f 63f
5:00pm 5ft 17s 20 25 mph 1005.5mb 65f 63f
4:00pm 5ft 13s 20 22 mph 1006.2mb 65f 63f
3:00pm 4.5ft 15s 20 22 mph 1006.8mb 65f 63f
2:00pm 4.5ft 14s 18 22 mph 1007.2mb 65f 63f
1:00pm 4.5ft 16s 18 22 mph 1007.7mb 65f 63f
12:00pm 4.5ft 15s 16 20 mph 1008.3mb 65f 63f
11:00am 4.5ft 16s 13 18 mph 1009mb 65f 63f
10:00am 4.5ft 15s 13 16 mph 1009.8mb 65f 63f
9:00am 4.5ft 14s 13 16 mph 1010.5mb 65f 63f
8:00am 4.5ft 14s 11 13 mph 1010.8mb 65f 63f
7:00am 4.5ft 15s 9 11 mph 1011.2mb 65f 63f
6:00am 4.5ft 15s 7 9 mph 1011.8mb 65f 64f
5:00am 4.5ft 15s 7
mph
1012.3mb 65f 64f
4:00am 4.5ft 16s 7
mph
1012.6mb 65f 64f
3:00am 4ft 16s 4 7 mph 1012.6mb 66f 64f
2:00am 4.5ft 15s 7
mph
1013mb 66f 65f
1:00am 4.5ft 16s 4 7 mph 1013.4mb 66f 65f
12:00am 4.5ft 16s 4 7 mph 1013.7mb 66f 65f
Thu 08/27 11:00pm 5ft 14s 4 7 mph 1014.3mb 66f 65f
10:00pm 4.5ft 15s 7 9 mph 1014.3mb 65f 65f
9:00pm 4.5ft 16s 7 9 mph 1014.5mb 65f 64f
8:00pm 4.5ft 14s 4 7 mph 1015mb 65f 64f
7:00pm 4ft 15s 4 7 mph 1015mb 65f 64f
6:00pm 4ft 14s 7 9 mph 1015mb 65f 63f
5:00pm 4ft 16s 7 9 mph 1014.5mb 64f 63f
4:00pm 4ft 15s 7
mph
1014.5mb 64f 63f
3:00pm 4ft 16s 4 7 mph 1014.4mb 64f 63f
2:00pm 4ft 15s 2
mph
1014.3mb 64f 63f
1:00pm 4.5ft 15s 2 4 mph 1014mb 64f 62f
12:00pm 4.5ft 14s 2
mph
1014mb 64f 62f
11:00am 4.5ft 15s 2 4 mph 1014mb 64f 62f
10:00am 4.5ft 8s 4
mph
1013.6mb 64f 62f
9:00am 5ft 8s 2 4 mph 1013.4mb 64f 62f
8:00am 5ft 8s 2 4 mph 1013.3mb 64f 62f
7:00am 4.5ft 8s 4 7 mph 1013.1mb 64f 62f
6:00am 5ft 15s 7
mph
1013.1mb 64f 62f
5:00am 4.5ft 8s 7
mph
1012.9mb 64f 62f
4:00am 4.5ft 15s 7 9 mph 1012.6mb 65f 62f
3:00am 4.5ft 14s 7 9 mph 1012.1mb 65f 62f
2:00am 4.5ft 15s 7 9 mph 1012mb 65f 62f
1:00am 4ft 15s 7 9 mph 1011.9mb 65f 62f
12:00am 4.5ft 15s 7 9 mph 1011.8mb 65f 62f
Wed 08/26 11:00pm 4.5ft 14s 7 9 mph 1011.7mb 65f 62f
10:00pm 4.5ft 8s 7 9 mph 1011.5mb 65f 61f
9:00pm 5ft 9s 9 11 mph 1011.3mb 65f 61f
8:00pm 5ft 8s 7 9 mph 1010.8mb 64f 60f
7:00pm 5ft 9s 9 13 mph 1010.3mb 64f 59f
6:00pm 5ft 10s 11 13 mph 1010.5mb 64f 57f
5:00pm 5ft 8s 7 9 mph 1011mb 64f 59f
4:00pm 5ft 8s 11 13 mph 1011.4mb 64f 60f
3:00pm 5ft 8s 9 11 mph 1011.6mb 64f 60f
2:00pm 5ft 8s 11 13 mph 1011.5mb 64f 60f
1:00pm 5ft 8s 9 11 mph 1011.5mb 64f 60f
12:00pm 5ft 8s 11 13 mph 1012mb 64f 61f
11:00am 5.5ft 9s 4
mph
1012.2mb 65f 62f
10:00am 5ft 9s 7 9 mph 1012.2mb 65f 62f
9:00am 6ft 10s 9 13 mph 1012.5mb 65f 62f
8:00am 6ft 8s 9 11 mph 1012.7mb 65f 62f
7:00am 5.5ft 10s 11 13 mph 1012.8mb 65f 62f
6:00am 6ft 9s 13 16 mph 1012.8mb 65f 62f
5:00am 5.5ft 10s 11 13 mph 1012.8mb 65f 62f
4:00am 6ft 10s 11 13 mph 1012.5mb 65f 62f
3:00am 6ft 10s 11 13 mph 1012.5mb 65f 62f
2:00am 5.5ft 9s 13 16 mph 1012.6mb 65f 63f
1:00am 6ft 10s 13 16 mph 1012.8mb 65f 62f
12:00am 6ft 8s 13 18 mph 1012.9mb 65f 63f
Tue 08/25 11:00pm 6.5ft 10s 13 18 mph 1013mb 65f 62f
10:00pm 6ft 10s 16 18 mph 1012.8mb 65f 62f
9:00pm 6.5ft 10s 16 18 mph 1012.9mb 65f 62f
8:00pm 6.5ft 10s 16 18 mph 1012.6mb 65f 61f
7:00pm 6ft 10s 16 20 mph 1012.4mb 65f 61f
6:00pm 6.5ft 8s 16 18 mph 1012.3mb 65f 61f
5:00pm 7ft 10s 18 20 mph 1011.9mb 65f 60f
4:00pm 7ft 10s 18 22 mph 1011.7mb 64f 61f
3:00pm 6.5ft 10s 18 22 mph 1011.8mb 64f 60f
2:00pm 6.5ft 10s 18 22 mph 1011.4mb 64f 61f
1:00pm 6.5ft 10s 20 25 mph 1011.3mb 64f 61f
12:00pm 6ft 10s 18 20 mph 1011.3mb 64f 62f
11:00am 6ft 10s 22 27 mph 1011.4mb 64f 61f
10:00am 6.5ft 10s 18 22 mph 1011.5mb 65f 62f
9:00am 7ft 10s 18 22 mph 1011.9mb 65f 62f
8:00am 7ft 10s 16 18 mph 1012.1mb 65f 61f
7:00am 7ft 10s 18 22 mph 1012.4mb 65f 61f
6:00am 7ft 10s 20 22 mph 1012.8mb 65f 62f
5:00am 7.5ft 10s 20 22 mph 1012.9mb 65f 62f
4:00am 7ft 10s 18 20 mph 1013.1mb 65f 62f
3:00am 7ft 10s 18 22 mph 1013.5mb 65f 62f
2:00am 6.5ft 10s 18 22 mph 1013.9mb 65f 62f
1:00am 6.5ft 10s 13 18 mph 1014.5mb 65f 62f
12:00am 6.5ft 11s 16 20 mph 1015.1mb 65f 60f